Terminal Aerodrome Forecast
Issued by NWS Blacksburg, VA

Home | Current Version | Previous Version | Text Only | Print | Product List | Glossary On
Versions: 1 2 3 4 5 6 7 8 9 10 11 12 13 14 15 16 17 18 19 20 21 22 23 24 25 26 27
000
FTUS41 KRNK 111120
TAFROA
TAF
KROA 111120Z 1112/1212 30015G25KT P6SM SCT050
      TEMPO 1112/1114 -SHSN SCT030 BKN050
     FM111400 30013G23KT P6SM FEW050
     FM112300 29007KT P6SM SKC
     FM120600 VRB04KT P6SM SCT040 BKN120=

USA.gov is the U.S. government's official web portal to all federal, state and local government web resources and services.